Time,TemperatureF,DewpointF,PressureIn,WindDirection,WindDirectionDegrees,WindSpeedMPH,WindSpeedGustMPH,Humidity,HourlyPrecipIn,Conditions,Clouds,dailyrainin,SoftwareType,DateUTC
2013-04-13 00:00:00,47.8,45.6,29.97,West,261,0.0,1.0,92,0.00,RA,,0.00,WeatherDisplay:10.37,2013-04-13 04:00:00,
2013-04-13 00:05:00,47.8,45.6,29.97,West,270,0.0,0.0,92,0.00,RA,,0.00,WeatherDisplay:10.37,2013-04-13 04:05:00,
2013-04-13 00:10:00,47.7,45.5,29.96,NW,315,0.0,0.0,92,0.00,CLR,,0.00,WeatherDisplay:10.37,2013-04-13 04:10:00,
2013-04-13 00:15:00,47.5,45.6,29.97,NW,315,0.0,0.0,93,0.00,CLR,,0.00,WeatherDisplay:10.37,2013-04-13 04:15:00,
2013-04-13 00:20:00,47.3,45.4,29.97,NW,315,0.0,0.0,93,0.00,CLR,,0.00,WeatherDisplay:10.37,2013-04-13 04:20:00,
2013-04-13 00:25:00,47.3,45.4,29.97,NW,315,0.0,0.0,93,0.00,CLR,,0.00,WeatherDisplay:10.37,2013-04-13 04:25:00,
2013-04-13 00:30:00,47.1,45.5,29.97,NW,315,0.0,0.0,94,0.00,CLR,,0.00,WeatherDisplay:10.37,2013-04-13 04:30:00,
2013-04-13 00:35:00,46.9,45.3,29.97,NW,315,0.0,0.0,94,0.00,CLR,,0.00,WeatherDisplay:10.37,2013-04-13 04:35:00,
2013-04-13 00:40:00,46.8,45.1,29.97,NW,315,0.0,0.0,94,0.00,CLR,,0.00,WeatherDisplay:10.37,2013-04-13 04:40:00,
2013-04-13 00:45:00,46.8,45.1,29.97,SW,225,0.0,0.0,94,0.00,CLR,,0.00,WeatherDisplay:10.37,2013-04-13 04:45:00,
2013-04-13 00:50:00,46.8,45.1,29.97,West,270,0.0,0.0,94,0.00,CLR,,0.00,WeatherDisplay:10.37,2013-04-13 04:50:00,
2013-04-13 00:55:00,46.8,45.1,29.98,West,270,0.0,0.0,94,0.00,CLR,,0.00,WeatherDisplay:10.37,2013-04-13 04:55:00,
2013-04-13 01:00:00,46.6,44.9,29.98,NW,315,0.0,0.0,94,0.00,CLR,,0.00,WeatherDisplay:10.37,2013-04-13 05:00:00,
2013-04-13 01:05:00,46.6,44.9,29.98,SW,225,2.3,0.0,94,0.00,CLR,,0.00,WeatherDisplay:10.37,2013-04-13 05:05:00,
2013-04-13 01:10:00,46.6,44.9,29.98,NW,315,0.0,0.0,94,0.00,CLR,,0.00,WeatherDisplay:10.37,2013-04-13 05:10:00,
2013-04-13 01:15:00,46.4,44.8,29.98,NW,315,0.0,0.0,94,0.00,CLR,,0.00,WeatherDisplay:10.37,2013-04-13 05:15:00,
2013-04-13 01:20:00,46.4,45.0,29.98,NW,315,0.0,0.0,95,0.00,CLR,,0.00,WeatherDisplay:10.37,2013-04-13 05:20:00,
2013-04-13 01:25:00,46.2,44.9,29.98,NW,315,0.0,0.0,95,0.00,CLR,,0.00,WeatherDisplay:10.37,2013-04-13 05:25:00,
2013-04-13 01:30:00,46.2,45.1,29.98,South,180,0.0,0.0,96,0.00,CLR,,0.00,WeatherDisplay:10.37,2013-04-13 05:30:00,
2013-04-13 01:35:00,46.2,45.1,29.98,NNW,338,2.3,2.3,96,0.00,CLR,,0.00,WeatherDisplay:10.37,2013-04-13 05:35:00,
2013-04-13 01:40:00,46.2,45.1,29.98,West,270,0.0,0.0,96,0.00,CLR,,0.00,WeatherDisplay:10.37,2013-04-13 05:40:00,
2013-04-13 01:45:00,46.2,45.4,29.98,NW,315,0.0,0.0,97,0.00,CLR,,0.00,WeatherDisplay:10.37,2013-04-13 05:45:00,
2013-04-13 01:50:00,46.0,45.2,29.98,NW,315,0.0,0.0,97,0.00,CLR,,0.00,WeatherDisplay:10.37,2013-04-13 05:50:00,
2013-04-13 01:55:00,45.9,45.1,29.98,NW,315,0.0,0.0,97,0.00,CLR,,0.00,WeatherDisplay:10.37,2013-04-13 05:55:00,
2013-04-13 02:00:00,45.9,45.1,29.97,NW,315,0.0,0.0,97,0.00,CLR,,0.00,WeatherDisplay:10.37,2013-04-13 06:00:00,
2013-04-13 02:05:00,45.9,45.1,29.98,NW,315,0.0,0.0,97,0.00,CLR,,0.00,WeatherDisplay:10.37,2013-04-13 06:05:00,
2013-04-13 02:10:00,45.5,44.7,29.98,East,90,1.1,1.3,97,0.00,CLR,,0.00,WeatherDisplay:10.37,2013-04-13 06:10:00,
2013-04-13 02:15:00,45.3,44.5,29.98,NE,45,0.0,0.0,97,0.00,CLR,,0.00,WeatherDisplay:10.37,2013-04-13 06:15:00,
2013-04-13 02:20:00,45.0,44.2,29.98,SE,135,1.1,0.0,97,0.00,CLR,,0.00,WeatherDisplay:10.37,2013-04-13 06:20:00,
2013-04-13 02:26:00,44.8,44.0,29.98,SE,135,0.0,0.0,97,0.00,CLR,,0.00,WeatherDisplay:10.37,2013-04-13 06:26:00,
2013-04-13 02:31:00,44.6,43.8,29.98,West,270,0.0,0.0,97,0.00,CLR,,0.00,WeatherDisplay:10.37,2013-04-13 06:31:00,
2013-04-13 02:37:00,44.4,43.9,29.98,West,270,0.0,0.0,98,0.00,CLR,,0.00,WeatherDisplay:10.37,2013-04-13 06:37:00,
2013-04-13 02:42:00,44.2,43.7,29.98,West,270,0.0,0.0,98,0.00,CLR,,0.00,WeatherDisplay:10.37,2013-04-13 06:42:00,
2013-04-13 02:49:00,44.1,43.5,29.98,West,270,0.0,0.0,98,0.00,CLR,,0.00,WeatherDisplay:10.37,2013-04-13 06:49:00,
2013-04-13 02:54:00,43.9,43.4,29.98,West,270,0.0,0.0,98,0.00,CLR,,0.00,WeatherDisplay:10.37,2013-04-13 06:54:00,
2013-04-13 03:00:00,43.9,43.4,29.98,West,270,0.0,0.0,98,0.00,CLR,,0.00,WeatherDisplay:10.37,2013-04-13 07:00:00,
2013-04-13 03:05:00,43.7,43.2,29.98,West,270,0.0,0.0,98,0.00,CLR,,0.00,WeatherDisplay:10.37,2013-04-13 07:05:00,
2013-04-13 03:10:00,43.9,43.4,29.98,West,270,0.0,0.0,98,0.00,CLR,,0.00,WeatherDisplay:10.37,2013-04-13 07:10:00,
2013-04-13 03:15:00,43.7,43.2,29.99,East,90,0.0,0.0,98,0.00,CLR,,0.00,WeatherDisplay:10.37,2013-04-13 07:15:00,
2013-04-13 03:20:00,43.7,43.2,29.99,East,90,0.0,0.0,98,0.00,CLR,,0.00,WeatherDisplay:10.37,2013-04-13 07:20:00,
2013-04-13 03:25:00,43.5,43.0,29.98,East,90,0.0,0.0,98,0.00,CLR,,0.00,WeatherDisplay:10.37,2013-04-13 07:25:00,
2013-04-13 03:30:00,43.5,43.0,29.99,WSW,248,0.0,0.0,98,0.00,CLR,,0.00,WeatherDisplay:10.37,2013-04-13 07:30:00,
2013-04-13 03:35:00,43.5,43.0,29.99,SW,232,0.0,0.0,98,0.00,CLR,,0.00,WeatherDisplay:10.37,2013-04-13 07:35:00,
2013-04-13 03:40:00,43.5,43.0,29.99,WSW,248,0.0,0.0,98,0.00,CLR,,0.00,WeatherDisplay:10.37,2013-04-13 07:40:00,
2013-04-13 03:45:00,43.3,42.8,29.99,WSW,248,0.0,0.0,98,0.00,CLR,,0.00,WeatherDisplay:10.37,2013-04-13 07:45:00,
2013-04-13 03:50:00,43.3,42.8,29.99,NW,315,0.0,0.0,98,0.00,CLR,,0.00,WeatherDisplay:10.37,2013-04-13 07:50:00,
2013-04-13 03:55:00,43.3,42.8,29.99,NW,309,0.0,0.0,98,0.00,CLR,,0.00,WeatherDisplay:10.37,2013-04-13 07:55:00,
2013-04-13 04:00:00,43.3,42.8,29.99,NW,315,0.0,0.0,98,0.00,CLR,,0.00,WeatherDisplay:10.37,2013-04-13 08:00:00,
2013-04-13 04:05:00,43.3,42.8,29.99,NW,315,0.0,0.0,98,0.00,CLR,,0.00,WeatherDisplay:10.37,2013-04-13 08:05:00,
2013-04-13 04:10:00,43.3,42.8,29.99,NW,315,0.0,0.0,98,0.00,CLR,,0.00,WeatherDisplay:10.37,2013-04-13 08:10:00,
2013-04-13 04:15:00,43.2,42.6,29.99,NW,315,0.0,0.0,98,0.00,CLR,,0.00,WeatherDisplay:10.37,2013-04-13 08:15:00,
2013-04-13 04:20:00,43.2,42.6,30.00,NW,315,0.0,0.0,98,0.00,CLR,,0.00,WeatherDisplay:10.37,2013-04-13 08:20:00,
2013-04-13 04:25:00,43.2,42.6,30.00,NW,315,0.0,0.0,98,0.00,CLR,,0.00,WeatherDisplay:10.37,2013-04-13 08:25:00,
2013-04-13 04:30:00,43.2,42.6,29.99,NW,315,0.0,0.0,98,0.00,CLR,,0.00,WeatherDisplay:10.37,2013-04-13 08:30:00,
2013-04-13 04:35:00,43.0,42.5,29.99,NW,315,0.0,0.0,98,0.00,CLR,,0.00,WeatherDisplay:10.37,2013-04-13 08:35:00,
2013-04-13 04:41:00,43.0,42.5,29.99,NW,315,0.0,0.0,98,0.00,CLR,,0.00,WeatherDisplay:10.37,2013-04-13 08:41:00,
2013-04-13 04:46:00,42.8,42.3,29.99,NW,315,0.0,0.0,98,0.00,CLR,,0.00,WeatherDisplay:10.37,2013-04-13 08:46:00,
2013-04-13 04:51:00,42.8,42.3,29.99,NW,315,0.0,0.0,98,0.00,CLR,,0.00,WeatherDisplay:10.37,2013-04-13 08:51:00,
2013-04-13 04:57:00,42.8,42.3,30.00,NW,315,0.0,0.0,98,0.00,CLR,,0.00,WeatherDisplay:10.37,2013-04-13 08:57:00,
2013-04-13 05:02:00,42.6,42.4,30.00,NW,315,0.0,0.0,99,0.00,CLR,,0.00,WeatherDisplay:10.37,2013-04-13 09:02:00,
2013-04-13 05:07:00,42.4,42.2,30.00,NW,315,0.0,0.0,99,0.00,CLR,,0.00,WeatherDisplay:10.37,2013-04-13 09:07:00,
2013-04-13 05:13:00,42.4,42.2,30.00,NW,315,0.0,0.0,99,0.00,CLR,,0.00,WeatherDisplay:10.37,2013-04-13 09:13:00,
2013-04-13 05:18:00,42.3,42.0,30.00,NW,315,0.0,0.0,99,0.00,CLR,,0.00,WeatherDisplay:10.37,2013-04-13 09:18:00,
2013-04-13 05:23:00,42.3,42.0,30.00,NW,315,0.0,0.0,99,0.00,CLR,,0.00,WeatherDisplay:10.37,2013-04-13 09:23:00,
2013-04-13 05:28:00,42.1,41.8,30.00,NW,315,0.0,0.0,99,0.00,CLR,,0.00,WeatherDisplay:10.37,2013-04-13 09:28:00,
2013-04-13 05:33:00,42.1,41.8,30.00,NW,315,0.0,0.0,99,0.00,CLR,,0.00,WeatherDisplay:10.37,2013-04-13 09:33:00,
2013-04-13 05:38:00,42.1,41.8,30.00,NW,315,0.0,0.0,99,0.00,CLR,,0.00,WeatherDisplay:10.37,2013-04-13 09:38:00,
2013-04-13 05:44:00,41.9,41.6,30.00,NW,315,0.0,0.0,99,0.00,CLR,,0.00,WeatherDisplay:10.37,2013-04-13 09:44:00,
2013-04-13 05:49:00,41.9,41.6,30.00,NW,315,0.0,0.0,99,0.00,CLR,,0.00,WeatherDisplay:10.37,2013-04-13 09:49:00,
2013-04-13 05:54:00,41.9,41.6,30.00,NW,315,0.0,0.0,99,0.00,CLR,,0.00,WeatherDisplay:10.37,2013-04-13 09:54:00,
2013-04-13 05:59:00,41.7,41.5,30.00,East,90,0.0,0.0,99,0.00,CLR,,0.00,WeatherDisplay:10.37,2013-04-13 09:59:00,
2013-04-13 06:04:00,41.7,41.5,30.00,East,90,0.0,0.0,99,0.00,CLR,,0.00,WeatherDisplay:10.37,2013-04-13 10:04:00,
2013-04-13 06:09:00,41.7,41.5,30.01,NW,315,0.0,0.0,99,0.00,CLR,,0.00,WeatherDisplay:10.37,2013-04-13 10:09:00,
2013-04-13 06:14:00,41.7,41.5,30.01,NW,315,0.0,0.0,99,0.00,CLR,,0.00,WeatherDisplay:10.37,2013-04-13 10:14:00,
2013-04-13 06:20:00,41.7,41.5,30.02,NW,315,0.0,0.0,99,0.00,CLR,,0.00,WeatherDisplay:10.37,2013-04-13 10:20:00,
2013-04-13 06:25:00,41.6,41.3,30.01,NW,315,0.0,0.0,99,0.00,CLR,,0.00,WeatherDisplay:10.37,2013-04-13 10:25:00,
2013-04-13 06:30:00,41.5,41.3,30.01,NW,315,1.1,0.0,99,0.00,CLR,,0.00,WeatherDisplay:10.37,2013-04-13 10:30:00,
2013-04-13 06:35:00,41.5,41.3,30.01,NW,315,0.0,0.0,99,0.00,CLR,,0.00,WeatherDisplay:10.37,2013-04-13 10:35:00,
2013-04-13 06:40:00,41.4,41.1,30.01,NW,315,0.0,0.0,99,0.00,CLR,,0.00,WeatherDisplay:10.37,2013-04-13 10:40:00,
2013-04-13 06:46:00,41.4,41.1,30.01,NW,315,0.0,0.0,99,0.00,CLR,,0.00,WeatherDisplay:10.37,2013-04-13 10:46:00,
2013-04-13 06:51:00,41.4,41.1,30.02,NW,315,0.0,0.0,99,0.00,CLR,,0.00,WeatherDisplay:10.37,2013-04-13 10:51:00,
2013-04-13 06:56:00,41.2,40.9,30.02,NW,315,0.0,0.0,99,0.00,CLR,,0.00,WeatherDisplay:10.37,2013-04-13 10:56:00,
2013-04-13 07:01:00,41.2,40.9,30.03,NW,315,0.0,0.0,99,0.00,CLR,,0.00,WeatherDisplay:10.37,2013-04-13 11:01:00,
2013-04-13 07:07:00,41.0,40.7,30.03,NW,315,0.0,0.0,99,0.00,CLR,,0.00,WeatherDisplay:10.37,2013-04-13 11:07:00,
2013-04-13 07:12:00,41.0,40.7,30.03,NW,315,0.0,0.0,99,0.00,CLR,,0.00,WeatherDisplay:10.37,2013-04-13 11:12:00,
2013-04-13 07:18:00,41.0,40.7,30.03,NW,315,0.0,0.0,99,0.00,CLR,,0.00,WeatherDisplay:10.37,2013-04-13 11:18:00,
2013-04-13 07:23:00,40.8,40.6,30.03,NW,315,0.0,0.0,99,0.00,CLR,,0.00,WeatherDisplay:10.37,2013-04-13 11:23:00,
2013-04-13 07:28:00,40.8,40.6,30.03,NW,315,0.0,0.0,99,0.00,CLR,,0.00,WeatherDisplay:10.37,2013-04-13 11:28:00,
2013-04-13 07:33:00,40.8,40.6,30.03,NW,315,0.0,0.0,99,0.00,CLR,,0.00,WeatherDisplay:10.37,2013-04-13 11:33:00,
2013-04-13 07:39:00,41.0,40.7,30.04,NW,315,0.0,0.0,99,0.00,CLR,,0.00,WeatherDisplay:10.37,2013-04-13 11:39:00,
2013-04-13 07:44:00,41.2,40.9,30.04,NW,315,0.0,0.0,99,0.00,CLR,,0.00,WeatherDisplay:10.37,2013-04-13 11:44:00,
2013-04-13 07:49:00,41.4,41.1,30.05,NW,315,0.0,0.0,99,0.00,CLR,,0.00,WeatherDisplay:10.37,2013-04-13 11:49:00,
2013-04-13 07:54:00,41.5,41.3,30.05,NW,315,0.0,0.0,99,0.00,CLR,,0.00,WeatherDisplay:10.37,2013-04-13 11:54:00,
2013-04-13 07:59:00,41.9,41.6,30.05,NW,315,0.0,0.0,99,0.00,CLR,,0.00,WeatherDisplay:10.37,2013-04-13 11:59:00,
2013-04-13 08:04:00,42.1,41.8,30.06,NW,315,0.0,0.0,99,0.00,CLR,,0.00,WeatherDisplay:10.37,2013-04-13 12:04:00,
2013-04-13 08:09:00,42.4,42.2,30.06,NW,315,0.0,0.0,99,0.00,CLR,,0.00,WeatherDisplay:10.37,2013-04-13 12:09:00,
2013-04-13 08:14:00,42.6,42.4,30.06,NW,315,0.0,0.0,99,0.00,CLR,,0.00,WeatherDisplay:10.37,2013-04-13 12:14:00,
2013-04-13 08:19:00,43.0,42.5,30.06,NW,315,0.0,0.0,98,0.00,CLR,,0.00,WeatherDisplay:10.37,2013-04-13 12:19:00,
2013-04-13 08:25:00,43.2,42.6,30.06,NW,315,0.0,0.0,98,0.00,CLR,,0.00,WeatherDisplay:10.37,2013-04-13 12:25:00,
2013-04-13 08:30:00,43.7,43.2,30.07,NW,315,0.0,0.0,98,0.00,CLR,,0.00,WeatherDisplay:10.37,2013-04-13 12:30:00,
2013-04-13 08:35:00,44.1,43.6,30.07,NW,315,0.0,0.0,98,0.00,CLR,,0.00,WeatherDisplay:10.37,2013-04-13 12:35:00,
2013-04-13 08:40:00,44.8,44.0,30.07,NW,315,0.0,0.0,97,0.00,CLR,,0.00,WeatherDisplay:10.37,2013-04-13 12:40:00,
2013-04-13 08:45:00,45.4,44.6,30.07,WNW,287,1.0,3.0,97,0.00,CLR,,0.00,WeatherDisplay:10.37,2013-04-13 12:45:00,
2013-04-13 08:50:00,46.6,46.3,30.07,SE,135,2.3,0.0,99,0.00,CLR,,0.00,WeatherDisplay:10.37,2013-04-13 12:50:00,
2013-04-13 08:55:00,47.7,47.4,30.07,South,180,2.3,2.3,99,0.00,CLR,,0.00,WeatherDisplay:10.37,2013-04-13 12:55:00,
2013-04-13 09:00:00,48.9,48.6,30.07,SE,141,1.0,3.0,99,0.00,CLR,,0.00,WeatherDisplay:10.37,2013-04-13 13:00:00,
2013-04-13 09:05:00,50.4,50.1,30.08,South,180,2.3,0.0,99,0.00,CLR,,0.00,WeatherDisplay:10.37,2013-04-13 13:05:00,
2013-04-13 09:10:00,51.8,51.3,30.08,SE,135,4.6,4.6,98,0.00,CLR,,0.00,WeatherDisplay:10.37,2013-04-13 13:10:00,
2013-04-13 09:15:00,52.7,52.2,30.08,SE,135,5.8,5.8,98,0.00,CLR,,0.00,WeatherDisplay:10.37,2013-04-13 13:15:00,
2013-04-13 09:21:00,53.8,52.4,30.08,SE,135,2.3,2.3,95,0.00,CLR,,0.00,WeatherDisplay:10.37,2013-04-13 13:21:00,
2013-04-13 09:26:00,54.7,52.4,30.08,East,90,5.8,5.8,92,0.00,CLR,,0.00,WeatherDisplay:10.37,2013-04-13 13:26:00,
2013-04-13 09:32:00,55.0,50.9,30.08,NW,315,4.6,4.6,86,0.00,CLR,,0.00,WeatherDisplay:10.37,2013-04-13 13:32:00,
2013-04-13 09:38:00,55.6,51.1,30.08,North,0,5.8,5.8,85,0.00,CLR,,0.00,WeatherDisplay:10.37,2013-04-13 13:38:00,
2013-04-13 09:43:00,55.8,49.3,30.08,North,0,5.8,5.8,79,0.00,CLR,,0.00,WeatherDisplay:10.37,2013-04-13 13:43:00,
2013-04-13 09:48:00,56.1,48.3,30.08,North,0,5.8,5.8,75,0.00,CLR,,0.00,WeatherDisplay:10.37,2013-04-13 13:48:00,
2013-04-13 09:53:00,56.7,48.8,30.08,East,90,10.1,10.1,75,0.00,CLR,,0.00,WeatherDisplay:10.37,2013-04-13 13:53:00,
2013-04-13 09:58:00,56.5,47.2,30.08,North,0,8.1,8.1,71,0.00,CLR,,0.00,WeatherDisplay:10.37,2013-04-13 13:58:00,
2013-04-13 10:03:00,56.5,47.2,30.08,West,270,4.6,4.6,71,0.00,CLR,,0.00,WeatherDisplay:10.37,2013-04-13 14:03:00,
2013-04-13 10:08:00,57.4,48.4,30.08,NW,315,8.1,8.1,72,0.00,CLR,,0.00,WeatherDisplay:10.37,2013-04-13 14:08:00,
2013-04-13 10:14:00,57.9,47.8,30.08,East,90,4.6,4.6,69,0.00,CLR,,0.00,WeatherDisplay:10.37,2013-04-13 14:14:00,
2013-04-13 10:19:00,58.5,47.9,30.08,NW,315,5.8,5.8,68,0.00,CLR,,0.00,WeatherDisplay:10.37,2013-04-13 14:19:00,
2013-04-13 10:24:00,58.8,48.3,30.08,North,0,6.9,6.9,68,0.00,CLR,,0.00,WeatherDisplay:10.37,2013-04-13 14:24:00,
2013-04-13 10:29:00,59.2,47.4,30.09,North,0,5.8,5.8,65,0.00,CLR,,0.00,WeatherDisplay:10.37,2013-04-13 14:29:00,
2013-04-13 10:34:00,59.2,47.4,30.08,West,270,6.9,6.9,65,0.00,CLR,,0.00,WeatherDisplay:10.37,2013-04-13 14:34:00,
2013-04-13 10:39:00,59.4,47.6,30.08,SW,225,4.6,4.6,65,0.00,CLR,,0.00,WeatherDisplay:10.37,2013-04-13 14:39:00,
2013-04-13 10:44:00,60.1,48.7,30.08,SE,135,8.1,8.1,66,0.00,CLR,,0.00,WeatherDisplay:10.37,2013-04-13 14:44:00,
2013-04-13 10:49:00,60.4,48.6,30.09,SW,225,2.3,2.3,65,0.00,CLR,,0.00,WeatherDisplay:10.37,2013-04-13 14:49:00,
2013-04-13 10:54:00,60.6,48.4,30.08,NE,45,5.8,5.8,64,0.00,CLR,,0.00,WeatherDisplay:10.37,2013-04-13 14:54:00,
2013-04-13 10:59:00,60.4,47.4,30.08,NNE,22,12.7,12.7,62,0.00,CLR,,0.00,WeatherDisplay:10.37,2013-04-13 14:59:00,
2013-04-13 11:04:00,60.3,47.6,30.08,ENE,68,4.6,4.6,63,0.00,CLR,,0.00,WeatherDisplay:10.37,2013-04-13 15:04:00,
2013-04-13 11:10:00,60.8,47.7,30.08,North,0,5.8,5.8,62,0.00,CLR,,0.00,WeatherDisplay:10.37,2013-04-13 15:10:00,
2013-04-13 11:15:00,61.2,48.0,30.08,NW,325,5.0,8.0,62,0.00,CLR,,0.00,WeatherDisplay:10.37,2013-04-13 15:15:00,
2013-04-13 11:20:00,61.7,48.5,30.08,NW,312,1.0,8.0,62,0.00,CLR,,0.00,WeatherDisplay:10.37,2013-04-13 15:20:00,
2013-04-13 11:25:00,62.1,48.4,30.08,SW,225,11.5,11.5,61,0.00,CLR,,0.00,WeatherDisplay:10.37,2013-04-13 15:25:00,
2013-04-13 11:31:00,63.0,48.4,30.08,SW,225,5.8,5.8,59,0.00,CLR,,0.00,WeatherDisplay:10.37,2013-04-13 15:31:00,
2013-04-13 11:36:00,63.5,49.4,30.08,North,0,6.9,6.9,60,0.00,CLR,,0.00,WeatherDisplay:10.37,2013-04-13 15:36:00,
2013-04-13 11:41:00,64.2,49.1,30.08,North,0,10.4,10.4,58,0.00,CLR,,0.00,WeatherDisplay:10.37,2013-04-13 15:41:00,
2013-04-13 11:46:00,64.4,48.8,30.09,North,0,5.8,5.8,57,0.00,CLR,,0.00,WeatherDisplay:10.37,2013-04-13 15:46:00,
2013-04-13 11:51:00,64.4,47.9,30.08,South,180,6.9,6.9,55,0.00,CLR,,0.00,WeatherDisplay:10.37,2013-04-13 15:51:00,
2013-04-13 11:56:00,64.9,49.3,30.08,North,0,6.9,6.9,57,0.00,CLR,,0.00,WeatherDisplay:10.37,2013-04-13 15:56:00,
2013-04-13 12:01:00,65.1,47.6,30.08,NNE,22,10.4,10.4,53,0.00,CLR,,0.00,WeatherDisplay:10.37,2013-04-13 16:01:00,
2013-04-13 12:06:00,65.3,49.2,30.08,ENE,68,8.4,8.4,56,0.00,CLR,,0.00,WeatherDisplay:10.37,2013-04-13 16:06:00,
2013-04-13 12:12:00,66.0,49.9,30.08,WSW,248,8.1,8.1,56,0.00,CLR,,0.00,WeatherDisplay:10.37,2013-04-13 16:12:00,
2013-04-13 12:17:00,66.2,48.6,30.08,West,270,8.1,8.1,53,0.00,CLR,,0.00,WeatherDisplay:10.37,2013-04-13 16:17:00,
2013-04-13 12:23:00,66.2,49.1,30.08,SW,225,2.3,2.3,54,0.00,CLR,,0.00,WeatherDisplay:10.37,2013-04-13 16:23:00,
2013-04-13 12:28:00,67.5,50.7,30.08,West,270,6.9,0.0,55,0.00,CLR,,0.00,WeatherDisplay:10.37,2013-04-13 16:28:00,
2013-04-13 12:33:00,68.5,49.2,30.08,SW,225,13.8,13.8,50,0.00,CLR,,0.00,WeatherDisplay:10.37,2013-04-13 16:33:00,
2013-04-13 12:38:00,68.4,48.5,30.08,SW,225,5.8,5.8,49,0.00,CLR,,0.00,WeatherDisplay:10.37,2013-04-13 16:38:00,
2013-04-13 12:43:00,68.9,50.0,30.07,East,90,5.8,8.4,51,0.00,CLR,,0.00,WeatherDisplay:10.37,2013-04-13 16:43:00,
2013-04-13 12:48:00,69.1,48.0,30.08,North,0,11.5,11.5,47,0.00,CLR,,0.00,WeatherDisplay:10.37,2013-04-13 16:48:00,
2013-04-13 12:53:00,69.6,49.1,30.07,NE,45,10.4,10.4,48,0.00,CLR,,0.00,WeatherDisplay:10.37,2013-04-13 16:53:00,
2013-04-13 12:59:00,69.3,46.4,30.06,SW,225,11.5,11.5,44,0.00,CLR,,0.00,WeatherDisplay:10.37,2013-04-13 16:59:00,
2013-04-13 13:04:00,69.6,49.1,30.06,West,270,4.6,4.6,48,0.00,CLR,,0.00,WeatherDisplay:10.37,2013-04-13 17:04:00,
2013-04-13 13:09:00,70.0,46.4,30.06,NW,315,5.8,5.8,43,0.00,CLR,,0.00,WeatherDisplay:10.37,2013-04-13 17:09:00,
2013-04-13 13:15:00,70.3,48.0,30.06,West,260,6.0,10.0,45,0.00,CLR,,0.00,WeatherDisplay:10.37,2013-04-13 17:15:00,
2013-04-13 13:20:00,69.8,46.3,30.05,SW,221,1.0,8.0,43,0.00,CLR,,0.00,WeatherDisplay:10.37,2013-04-13 17:20:00,
2013-04-13 13:25:00,69.6,47.3,30.05,North,349,2.0,13.0,45,0.00,CLR,,0.00,WeatherDisplay:10.37,2013-04-13 17:25:00,
2013-04-13 13:30:00,69.8,46.3,30.05,NNW,334,6.0,12.0,43,0.00,CLR,,0.00,WeatherDisplay:10.37,2013-04-13 17:30:00,
2013-04-13 13:35:00,69.6,46.7,30.05,SSE,166,2.0,12.0,44,0.00,CLR,,0.00,WeatherDisplay:10.37,2013-04-13 17:35:00,
2013-04-13 13:40:00,70.3,46.8,30.04,North,0,8.4,8.4,43,0.00,CLR,,0.00,WeatherDisplay:10.37,2013-04-13 17:40:00,
2013-04-13 13:45:00,70.9,46.0,30.05,NE,45,12.7,12.7,41,0.00,CLR,,0.00,WeatherDisplay:10.37,2013-04-13 17:45:00,
2013-04-13 13:50:00,70.3,45.5,30.05,South,180,10.4,10.4,41,0.00,CLR,,0.00,WeatherDisplay:10.37,2013-04-13 17:50:00,
2013-04-13 13:55:00,71.1,47.4,30.03,SE,135,6.9,6.9,43,0.00,CLR,,0.00,WeatherDisplay:10.37,2013-04-13 17:55:00,
2013-04-13 14:00:00,70.9,47.3,30.04,West,270,6.9,0.0,43,0.00,CLR,,0.00,WeatherDisplay:10.37,2013-04-13 18:00:00,
2013-04-13 14:05:00,71.1,47.4,30.04,South,180,5.8,5.8,43,0.00,CLR,,0.00,WeatherDisplay:10.37,2013-04-13 18:05:00,
2013-04-13 14:10:00,71.4,47.7,30.04,NW,315,4.6,4.6,43,0.00,CLR,,0.00,WeatherDisplay:10.37,2013-04-13 18:10:00,
2013-04-13 14:15:00,71.8,46.2,30.04,North,0,4.6,4.6,40,0.00,CLR,,0.00,WeatherDisplay:10.37,2013-04-13 18:15:00,
2013-04-13 14:20:00,71.8,44.8,30.04,North,0,6.9,6.9,38,0.00,CLR,,0.00,WeatherDisplay:10.37,2013-04-13 18:20:00,
2013-04-13 14:25:00,72.1,45.1,30.04,South,180,5.8,5.8,38,0.00,CLR,,0.00,WeatherDisplay:10.37,2013-04-13 18:25:00,
2013-04-13 14:27:00,72.3,43.1,30.03,SE,135,5.8,5.8,35,0.00,CLR,,0.00,WeatherDisplay:10.37,2013-04-13 18:27:00,
2013-04-13 14:32:00,72.1,43.0,30.03,NE,45,5.8,5.8,35,0.00,CLR,,0.00,WeatherDisplay:10.37,2013-04-13 18:32:00,
2013-04-13 14:37:00,72.0,41.3,30.03,NW,315,13.8,13.8,33,0.00,CLR,,0.00,WeatherDisplay:10.37,2013-04-13 18:37:00,
2013-04-13 14:42:00,72.5,44.0,30.03,North,0,8.1,8.1,36,0.00,CLR,,0.00,WeatherDisplay:10.37,2013-04-13 18:42:00,
2013-04-13 14:47:00,73.0,43.8,30.03,NE,45,8.1,8.1,35,0.00,CLR,,0.00,WeatherDisplay:10.37,2013-04-13 18:47:00,
2013-04-13 14:52:00,73.2,43.9,30.03,SW,225,5.8,7.0,35,0.00,CLR,,0.00,WeatherDisplay:10.37,2013-04-13 18:52:00,
2013-04-13 14:57:00,73.0,43.0,30.02,SW,225,8.1,8.1,34,0.00,CLR,,0.00,WeatherDisplay:10.37,2013-04-13 18:57:00,
2013-04-13 15:02:00,73.6,45.7,30.02,SW,225,5.8,5.8,37,0.00,CLR,,0.00,WeatherDisplay:10.37,2013-04-13 19:02:00,
2013-04-13 15:07:00,73.9,44.5,30.02,North,0,6.9,6.9,35,0.00,CLR,,0.00,WeatherDisplay:10.37,2013-04-13 19:07:00,
2013-04-13 15:12:00,74.5,45.0,30.02,NW,315,5.8,0.0,35,0.00,CLR,,0.00,WeatherDisplay:10.37,2013-04-13 19:12:00,
2013-04-13 15:17:00,75.4,44.3,30.02,SW,225,5.7,5.7,33,0.00,CLR,,0.00,WeatherDisplay:10.37,2013-04-13 19:17:00,
2013-04-13 15:22:00,74.7,42.8,30.02,NW,315,12.7,12.7,32,0.00,CLR,,0.00,WeatherDisplay:10.37,2013-04-13 19:22:00,
2013-04-13 15:27:00,74.3,44.9,30.02,South,180,4.6,4.6,35,0.00,CLR,,0.00,WeatherDisplay:10.37,2013-04-13 19:27:00,
2013-04-13 15:32:00,74.3,45.6,30.02,North,0,4.6,4.6,36,0.00,CLR,,0.00,WeatherDisplay:10.37,2013-04-13 19:32:00,
2013-04-13 15:38:00,74.5,45.0,30.01,East,90,6.9,6.9,35,0.00,CLR,,0.00,WeatherDisplay:10.37,2013-04-13 19:38:00,
2013-04-13 15:43:00,74.7,45.2,30.01,SW,225,5.8,5.8,35,0.00,CLR,,0.00,WeatherDisplay:10.37,2013-04-13 19:43:00,
2013-04-13 15:48:00,75.6,46.7,30.01,West,270,4.6,4.6,36,0.00,CLR,,0.00,WeatherDisplay:10.37,2013-04-13 19:48:00,
2013-04-13 15:53:00,76.3,45.8,30.01,South,180,5.8,5.8,34,0.00,CLR,,0.00,WeatherDisplay:10.37,2013-04-13 19:53:00,
2013-04-13 15:58:00,75.6,45.2,30.00,East,90,8.1,8.1,34,0.00,CLR,,0.00,WeatherDisplay:10.37,2013-04-13 19:58:00,
2013-04-13 16:03:00,75.4,45.1,30.01,East,90,8.1,8.1,34,0.00,CLR,,0.00,WeatherDisplay:10.37,2013-04-13 20:03:00,
2013-04-13 16:08:00,75.6,46.0,30.01,NW,315,5.8,5.8,35,0.00,CLR,,0.00,WeatherDisplay:10.37,2013-04-13 20:08:00,
2013-04-13 16:13:00,75.9,44.7,30.00,SW,225,4.6,4.6,33,0.00,CLR,,0.00,WeatherDisplay:10.37,2013-04-13 20:13:00,
2013-04-13 16:18:00,75.9,45.5,30.00,North,0,6.9,6.9,34,0.00,CLR,,0.00,WeatherDisplay:10.37,2013-04-13 20:18:00,
2013-04-13 16:23:00,76.1,46.5,30.00,West,270,10.4,10.4,35,0.00,CLR,,0.00,WeatherDisplay:10.37,2013-04-13 20:23:00,
2013-04-13 16:28:00,76.3,44.2,30.00,WSW,248,8.1,8.1,32,0.00,CLR,,0.00,WeatherDisplay:10.37,2013-04-13 20:28:00,
2013-04-13 16:33:00,75.6,42.8,30.00,SW,225,5.8,5.8,31,0.00,CLR,,0.00,WeatherDisplay:10.37,2013-04-13 20:33:00,
2013-04-13 16:38:00,75.6,45.2,30.00,West,270,4.6,4.6,34,0.00,CLR,,0.00,WeatherDisplay:10.37,2013-04-13 20:38:00,
2013-04-13 16:43:00,75.6,43.6,30.00,SE,135,11.5,11.5,32,0.00,CLR,,0.00,WeatherDisplay:10.37,2013-04-13 20:43:00,
2013-04-13 16:48:00,75.6,45.2,29.99,NW,315,2.3,0.0,34,0.00,CLR,,0.00,WeatherDisplay:10.37,2013-04-13 20:48:00,
2013-04-13 16:53:00,75.6,42.8,29.99,NW,315,10.4,10.4,31,0.00,CLR,,0.00,WeatherDisplay:10.37,2013-04-13 20:53:00,
2013-04-13 16:58:00,75.6,45.2,29.99,North,0,6.9,6.9,34,0.00,CLR,,0.00,WeatherDisplay:10.37,2013-04-13 20:58:00,
2013-04-13 17:03:00,75.4,43.5,30.00,North,0,10.4,10.4,32,0.00,CLR,,0.00,WeatherDisplay:10.37,2013-04-13 21:03:00,
2013-04-13 17:08:00,75.2,44.9,29.99,North,0,5.8,5.8,34,0.00,CLR,,0.00,WeatherDisplay:10.37,2013-04-13 21:08:00,
2013-04-13 17:13:00,75.4,45.1,29.99,North,0,5.8,5.8,34,0.00,CLR,,0.00,WeatherDisplay:10.37,2013-04-13 21:13:00,
2013-04-13 17:18:00,75.4,45.1,29.99,NW,315,4.6,0.0,34,0.00,CLR,,0.00,WeatherDisplay:10.37,2013-04-13 21:18:00,
2013-04-13 17:23:00,75.6,45.2,29.99,East,90,4.6,4.6,34,0.00,CLR,,0.00,WeatherDisplay:10.37,2013-04-13 21:23:00,
2013-04-13 17:28:00,75.6,45.2,29.99,NE,45,5.8,5.8,34,0.00,CLR,,0.00,WeatherDisplay:10.37,2013-04-13 21:28:00,
2013-04-13 17:33:00,75.4,45.1,29.99,NE,45,4.6,4.6,34,0.00,CLR,,0.00,WeatherDisplay:10.37,2013-04-13 21:33:00,
2013-04-13 17:38:00,75.4,45.1,29.99,North,0,5.7,5.7,34,0.00,CLR,,0.00,WeatherDisplay:10.37,2013-04-13 21:38:00,
2013-04-13 17:43:00,75.0,45.5,29.99,NE,45,6.9,6.9,35,0.00,CLR,,0.00,WeatherDisplay:10.37,2013-04-13 21:43:00,
2013-04-13 17:48:00,74.8,45.3,29.99,WNW,292,5.8,5.8,35,0.00,CLR,,0.00,WeatherDisplay:10.37,2013-04-13 21:48:00,
2013-04-13 17:53:00,74.7,45.2,29.99,South,180,2.3,0.0,35,0.00,CLR,,0.00,WeatherDisplay:10.37,2013-04-13 21:53:00,
2013-04-13 17:58:00,74.7,45.9,29.99,West,270,4.6,0.0,36,0.00,CLR,,0.00,WeatherDisplay:10.37,2013-04-13 21:58:00,
2013-04-13 18:03:00,74.8,46.8,29.99,East,90,4.6,4.6,37,0.00,CLR,,0.00,WeatherDisplay:10.37,2013-04-13 22:03:00,
2013-04-13 18:08:00,74.1,45.5,29.99,NE,45,6.9,6.9,36,0.00,CLR,,0.00,WeatherDisplay:10.37,2013-04-13 22:08:00,
2013-04-13 18:13:00,73.6,45.7,29.99,North,0,5.8,5.8,37,0.00,CLR,,0.00,WeatherDisplay:10.37,2013-04-13 22:13:00,
2013-04-13 18:18:00,73.4,46.2,29.99,SW,225,2.3,2.3,38,0.00,CLR,,0.00,WeatherDisplay:10.37,2013-04-13 22:18:00,
2013-04-13 18:23:00,73.0,47.3,29.99,NW,315,1.1,2.7,40,0.00,CLR,,0.00,WeatherDisplay:10.37,2013-04-13 22:23:00,
2013-04-13 18:28:00,72.7,47.6,29.99,NW,315,5.8,5.8,41,0.00,CLR,,0.00,WeatherDisplay:10.37,2013-04-13 22:28:00,
2013-04-13 18:33:00,72.3,45.3,29.99,NW,315,5.8,5.8,38,0.00,CLR,,0.00,WeatherDisplay:10.37,2013-04-13 22:33:00,
2013-04-13 18:38:00,72.1,45.1,29.99,North,0,5.8,5.8,38,0.00,CLR,,0.00,WeatherDisplay:10.37,2013-04-13 22:38:00,
2013-04-13 18:43:00,72.1,45.1,29.99,NE,45,5.8,5.8,38,0.00,CLR,,0.00,WeatherDisplay:10.37,2013-04-13 22:43:00,
2013-04-13 18:48:00,72.0,45.0,29.99,North,0,5.8,5.8,38,0.00,CLR,,0.00,WeatherDisplay:10.37,2013-04-13 22:48:00,
2013-04-13 18:53:00,71.6,46.0,29.99,North,0,1.1,0.0,40,0.00,CLR,,0.00,WeatherDisplay:10.37,2013-04-13 22:53:00,
2013-04-13 18:58:00,71.4,47.1,29.99,North,0,1.1,0.0,42,0.00,CLR,,0.00,WeatherDisplay:10.37,2013-04-13 22:58:00,
2013-04-13 19:03:00,71.1,47.4,29.99,North,0,4.4,4.4,43,0.00,CLR,,0.00,WeatherDisplay:10.37,2013-04-13 23:03:00,
2013-04-13 19:08:00,70.7,47.1,29.99,NE,45,5.8,5.8,43,0.00,CLR,,0.00,WeatherDisplay:10.37,2013-04-13 23:08:00,
2013-04-13 19:13:00,70.3,46.8,29.99,North,0,2.3,2.3,43,0.00,CLR,,0.00,WeatherDisplay:10.37,2013-04-13 23:13:00,
2013-04-13 19:18:00,69.8,46.9,29.99,NW,315,2.3,2.3,44,0.00,CLR,,0.00,WeatherDisplay:10.37,2013-04-13 23:18:00,
2013-04-13 19:23:00,68.9,46.7,29.99,North,0,2.3,2.3,45,0.00,CLR,,0.00,WeatherDisplay:10.37,2013-04-13 23:23:00,
2013-04-13 19:28:00,68.4,46.2,29.99,NW,315,1.1,0.0,45,0.00,CLR,,0.00,WeatherDisplay:10.37,2013-04-13 23:28:00,
2013-04-13 19:33:00,67.8,46.3,29.99,NE,45,4.6,4.6,46,0.00,CLR,,0.00,WeatherDisplay:10.37,2013-04-13 23:33:00,
2013-04-13 19:38:00,67.3,46.4,30.00,NE,45,4.6,4.6,47,0.00,CLR,,0.00,WeatherDisplay:10.37,2013-04-13 23:38:00,
2013-04-13 19:43:00,66.9,46.6,30.00,NW,315,2.3,0.0,48,0.00,CLR,,0.00,WeatherDisplay:10.37,2013-04-13 23:43:00,
2013-04-13 19:48:00,66.6,46.8,30.00,SW,225,0.0,0.0,49,0.00,CLR,,0.00,WeatherDisplay:10.37,2013-04-13 23:48:00,
2013-04-13 19:53:00,66.0,46.8,30.00,North,0,2.3,0.0,50,0.00,CLR,,0.00,WeatherDisplay:10.37,2013-04-13 23:53:00,
2013-04-13 19:58:00,65.7,47.5,29.99,North,0,0.0,0.0,52,0.00,CLR,,0.00,WeatherDisplay:10.37,2013-04-13 23:58:00,
2013-04-13 20:03:00,64.9,46.9,30.00,North,0,0.0,0.0,52,0.00,CLR,,0.00,WeatherDisplay:10.37,2013-04-14 00:03:00,
2013-04-13 20:08:00,64.6,46.6,29.99,North,0,0.0,0.0,52,0.00,CLR,,0.00,WeatherDisplay:10.37,2013-04-14 00:08:00,
2013-04-13 20:13:00,63.9,47.4,29.99,NW,315,0.0,0.0,55,0.00,CLR,,0.00,WeatherDisplay:10.37,2013-04-14 00:13:00,
2013-04-13 20:18:00,63.1,48.1,29.99,NW,315,0.0,0.0,58,0.00,CLR,,0.00,WeatherDisplay:10.37,2013-04-14 00:18:00,
2013-04-13 20:23:00,62.4,48.3,29.99,NW,315,4.6,0.0,60,0.00,CLR,,0.00,WeatherDisplay:10.37,2013-04-14 00:23:00,
2013-04-13 20:28:00,61.7,48.5,30.00,North,0,1.1,0.0,62,0.00,CLR,,0.00,WeatherDisplay:10.37,2013-04-14 00:28:00,
2013-04-13 20:33:00,61.2,48.0,30.00,NW,315,2.3,0.0,62,0.00,CLR,,0.00,WeatherDisplay:10.37,2013-04-14 00:33:00,
2013-04-13 20:38:00,60.4,47.8,30.00,NW,315,0.0,0.0,63,0.00,CLR,,0.00,WeatherDisplay:10.37,2013-04-14 00:38:00,
2013-04-13 20:43:00,60.1,47.9,30.00,NW,315,0.0,0.0,64,0.00,CLR,,0.00,WeatherDisplay:10.37,2013-04-14 00:43:00,
2013-04-13 20:48:00,59.7,47.1,30.00,North,0,0.0,0.0,63,0.00,CLR,,0.00,WeatherDisplay:10.37,2013-04-14 00:48:00,
2013-04-13 20:53:00,59.4,46.8,30.00,North,0,0.0,0.0,63,0.00,CLR,,0.00,WeatherDisplay:10.37,2013-04-14 00:53:00,
2013-04-13 20:58:00,59.2,46.6,30.00,North,0,0.0,0.0,63,0.00,CLR,,0.00,WeatherDisplay:10.37,2013-04-14 00:58:00,
2013-04-13 21:03:00,59.0,46.4,30.00,North,0,0.0,0.0,63,0.00,CLR,,0.00,WeatherDisplay:10.37,2013-04-14 01:03:00,
2013-04-13 21:08:00,58.6,46.5,30.00,South,180,0.0,0.0,64,0.00,CLR,,0.00,WeatherDisplay:10.37,2013-04-14 01:08:00,
2013-04-13 21:13:00,58.5,46.7,30.00,South,180,0.0,0.0,65,0.00,CLR,,0.00,WeatherDisplay:10.37,2013-04-14 01:13:00,
2013-04-13 21:18:00,58.5,46.7,30.00,West,270,0.0,0.0,65,0.00,CLR,,0.00,WeatherDisplay:10.37,2013-04-14 01:18:00,
2013-04-13 21:23:00,58.5,46.3,30.00,SW,225,0.0,0.0,64,0.00,CLR,,0.00,WeatherDisplay:10.37,2013-04-14 01:23:00,
2013-04-13 21:28:00,58.3,46.2,30.01,East,90,0.0,0.0,64,0.00,CLR,,0.00,WeatherDisplay:10.37,2013-04-14 01:28:00,
2013-04-13 21:33:00,57.9,46.2,30.01,East,90,4.6,0.0,65,0.00,CLR,,0.00,WeatherDisplay:10.37,2013-04-14 01:33:00,
2013-04-13 21:38:00,57.6,46.3,30.01,NW,315,0.0,0.0,66,0.00,CLR,,0.00,WeatherDisplay:10.37,2013-04-14 01:38:00,
2013-04-13 21:43:00,57.0,46.6,30.01,NW,315,0.0,0.0,68,0.00,CLR,,0.00,WeatherDisplay:10.37,2013-04-14 01:43:00,
2013-04-13 21:48:00,56.7,47.0,30.01,NW,315,0.0,0.0,70,0.00,CLR,,0.00,WeatherDisplay:10.37,2013-04-14 01:48:00,
2013-04-13 21:53:00,56.1,46.5,30.01,NW,315,0.0,0.0,70,0.00,CLR,,0.00,WeatherDisplay:10.37,2013-04-14 01:53:00,
2013-04-13 21:58:00,55.8,46.1,30.01,NW,315,0.0,0.0,70,0.00,CLR,,0.00,WeatherDisplay:10.37,2013-04-14 01:58:00,
2013-04-13 22:03:00,55.4,46.9,30.02,West,270,0.0,0.0,73,0.00,CLR,,0.00,WeatherDisplay:10.37,2013-04-14 02:03:00,
2013-04-13 22:08:00,54.9,46.0,30.02,West,270,0.0,0.0,72,0.00,CLR,,0.00,WeatherDisplay:10.37,2013-04-14 02:08:00,
2013-04-13 22:13:00,54.5,46.0,30.02,West,270,0.0,0.0,73,0.00,CLR,,0.00,WeatherDisplay:10.37,2013-04-14 02:13:00,
2013-04-13 22:18:00,54.1,46.0,30.03,West,270,0.0,0.0,74,0.00,CLR,,0.00,WeatherDisplay:10.37,2013-04-14 02:18:00,
2013-04-13 22:23:00,54.0,45.9,30.03,West,270,0.0,0.0,74,0.00,CLR,,0.00,WeatherDisplay:10.37,2013-04-14 02:23:00,
2013-04-13 22:28:00,53.6,45.5,30.03,West,270,0.0,0.0,74,0.00,CLR,,0.00,WeatherDisplay:10.37,2013-04-14 02:28:00,
2013-04-13 22:33:00,53.4,45.7,30.03,West,270,0.0,0.0,75,0.00,CLR,,0.00,WeatherDisplay:10.37,2013-04-14 02:33:00,
2013-04-13 22:38:00,53.1,46.0,30.03,West,270,0.0,0.0,77,0.00,CLR,,0.00,WeatherDisplay:10.37,2013-04-14 02:38:00,
2013-04-13 22:43:00,52.9,46.2,30.04,SW,225,0.0,0.0,78,0.00,CLR,,0.00,WeatherDisplay:10.37,2013-04-14 02:43:00,
2013-04-13 22:48:00,52.7,45.7,30.03,NW,315,0.0,0.0,77,0.00,CLR,,0.00,WeatherDisplay:10.37,2013-04-14 02:48:00,
2013-04-13 22:53:00,52.7,46.0,30.03,NW,315,0.0,0.0,78,0.00,CLR,,0.00,WeatherDisplay:10.37,2013-04-14 02:53:00,
2013-04-13 22:58:00,52.5,46.5,30.03,NW,315,0.0,0.0,80,0.00,CLR,,0.00,WeatherDisplay:10.37,2013-04-14 02:58:00,
2013-04-13 23:03:00,52.2,46.8,30.03,NW,315,0.0,0.0,82,0.00,CLR,,0.00,WeatherDisplay:10.37,2013-04-14 03:03:00,
2013-04-13 23:08:00,51.8,46.5,30.03,NW,315,0.0,0.0,82,0.00,CLR,,0.00,WeatherDisplay:10.37,2013-04-14 03:08:00,
2013-04-13 23:13:00,51.6,46.6,30.03,NW,315,0.0,0.0,83,0.00,CLR,,0.00,WeatherDisplay:10.37,2013-04-14 03:13:00,
2013-04-13 23:18:00,51.4,46.4,30.03,NW,315,0.0,0.0,83,0.00,CLR,,0.00,WeatherDisplay:10.37,2013-04-14 03:18:00,
2013-04-13 23:23:00,51.1,46.1,30.03,NW,315,0.0,0.0,83,0.00,CLR,,0.00,WeatherDisplay:10.37,2013-04-14 03:23:00,
2013-04-13 23:28:00,51.1,46.1,30.03,NW,315,0.0,0.0,83,0.00,CLR,,0.00,WeatherDisplay:10.37,2013-04-14 03:28:00,
2013-04-13 23:33:00,50.9,45.9,30.03,NW,315,0.0,0.0,83,0.00,CLR,,0.00,WeatherDisplay:10.37,2013-04-14 03:33:00,
2013-04-13 23:38:00,50.5,45.9,30.03,NW,315,0.0,0.0,84,0.00,CLR,,0.00,WeatherDisplay:10.37,2013-04-14 03:38:00,
2013-04-13 23:43:00,50.4,45.7,30.03,NW,315,0.0,0.0,84,0.00,CLR,,0.00,WeatherDisplay:10.37,2013-04-14 03:43:00,
2013-04-13 23:48:00,50.4,45.7,30.04,NW,315,0.0,0.0,84,0.00,CLR,,0.00,WeatherDisplay:10.37,2013-04-14 03:48:00,
2013-04-13 23:53:00,50.0,45.4,30.04,NW,315,0.0,0.0,84,0.00,CLR,,0.00,WeatherDisplay:10.37,2013-04-14 03:53:00,
2013-04-13 23:58:00,50.0,45.7,30.04,NW,315,0.0,0.0,85,0.00,CLR,,0.00,WeatherDisplay:10.37,2013-04-14 03:58:00,